Portada
METAR-TAF:

METAR-TAF

Aeroports :

Fernandina Beach, Florida, Estats Units d'Amèrica

latitud: 30-36-43N, longitud: 081-27-40W, altitud: 5 m

Observació

L'informe es va fer fa 29 minuts, a les 22:15 UTC
Vent 11 kt del Oest amb ràfegues de 15 kt
Temperatura 15°C
Humitat 29%
Pressió 1021 hPa
Visibilitat: 16.1 km
Cel clar

METAR: KFHB 282215Z AUTO 26011G15KT 10SM CLR 15/M03 A3014 RMK AO2 T01511034

Hora: 17:44 (22:44 UTC)


TAF: manca

Observacions i pronòstics meteorològics de més de 4000 aeroports (METAR i TAF).

Les estacions disponibles són els punts grocs i vermells al mapa.

Posi el ratolí al punt desitjat per veure el nom de l'estació.

Feu clic per veure les observacions i els pronòstics meteorològics.

Per canviar el mapa: feu clic els botons verds amb una creu de color negre per apropar; al botó verd amb un guió per allunyar la imatge; o en les fletxes verdes per a mapes adjacents.


METAR-TAF: